Flight Track Log - Related Links

Times and Time Zones

All times are in EDT time to prevent confusion due to time zone crossing. See the NAX1262 flight status page for this flight to view local times or setup timezone preferences in your user account.

Time Position Orientation Groundspeed Altitude Reporting Facility
EDT Latitude Longitude Course Direction KTS MPH feet Rate Location/Type
Thu 01:10:45 AM 60.1620 11.1000 195° South 159 183 2,600  Level FlightAware ADS-B
Thu 01:11:09 AM 60.1420 11.0920 191° South 202 232 3,000 1,800 Climbing FlightAware ADS-B
Thu 01:11:45 AM 60.1100 11.1290 150° Southeast 252 290 4,400 2,360 Climbing FlightAware ADS-B
Thu 01:12:38 AM 60.0630 11.2320 132° Southeast 295 339 6,500 2,809 Climbing FlightAware ADS-B
Thu 01:13:19 AM 60.0300 11.3170 128° Southeast 289 333 8,800 3,195 Climbing FlightAware ADS-B
Thu 01:13:55 AM 60.0000 11.3930 128° Southeast 289 333 10,600 2,250 Climbing FlightAware ADS-B
Thu 01:14:23 AM 59.9720 11.4450 137° Southeast 305 351 11,200 1,254 Climbing FlightAware ADS-B
Thu 01:15:02 AM 59.9180 11.5000 153° Southeast 351 404 12,000 2,037 Climbing FlightAware ADS-B
Thu 01:16:12 AM 59.8280 11.6350 143° Southeast 367 422 14,900 2,523 Climbing FlightAware ADS-B
Thu 01:16:49 AM 59.7760 11.7130 143° Southeast 374 430 16,500 2,585 Climbing FlightAware ADS-B
Thu 01:17:17 AM 59.7370 11.7700 144° Southeast 376 433 17,700 2,300 Climbing FlightAware ADS-B
Thu 01:17:49 AM 59.6930 11.8360 143° Southeast 380 437 18,800 1,938 Climbing FlightAware ADS-B
Thu 01:18:22 AM 59.6440 11.9080 143° Southeast 392 451 19,800 1,898 Climbing FlightAware ADS-B
Thu 01:19:27 AM 59.5500 12.0460 143° Southeast 404 465 21,900 1,806 Climbing FlightAware ADS-B
Thu 01:20:05 AM 59.4920 12.1300 144° Southeast 410 472 22,900 1,612 Climbing FlightAware ADS-B
Thu 01:20:34 AM 59.4480 12.1930 144° Southeast 415 478 23,700 1,474 Climbing FlightAware ADS-B
Thu 01:21:02 AM 59.4020 12.2570 145° Southeast 423 487 24,300 923 Climbing FlightAware ADS-B
Thu 01:21:39 AM 59.3420 12.3400 145° Southeast 441 507 24,700 667 Climbing FlightAware ADS-B
Thu 01:22:14 AM 59.2850 12.4200 144° Southeast 455 524 25,100 917 Climbing FlightAware ADS-B
Thu 01:22:51 AM 59.2200 12.5090 145° Southeast 462 532 25,800 1,151 Climbing FlightAware ADS-B
Thu 01:23:27 AM 59.1550 12.5990 145° Southeast 467 537 26,500 1,391 Climbing FlightAware ADS-B
Thu 01:24:00 AM 59.0960 12.6800 145° Southeast 463 533 27,400 1,618 Climbing FlightAware ADS-B
Thu 01:24:56 AM 59.0010 12.8090 145° Southeast 458 527 28,900 1,575 Climbing FlightAware ADS-B
Thu 01:25:20 AM 58.9570 12.8690 145° Southeast 457 526 29,500 1,477 Climbing FlightAware ADS-B
Thu 01:26:01 AM 58.8890 12.9600 145° Southeast 451 519 30,500 1,500 Climbing FlightAware ADS-B
Thu 01:26:32 AM 58.8350 13.0330 145° Southeast 448 516 31,300 1,343 Climbing FlightAware ADS-B
Thu 01:27:08 AM 58.7720 13.1160 146° Southeast 447 514 32,000 1,068 Climbing FlightAware ADS-B
Thu 01:27:45 AM 58.7100 13.1990 145° Southeast 448 516 32,600 906 Climbing FlightAware ADS-B
Thu 01:28:54 AM 58.5920 13.3550 145° Southeast 452 520 33,600 840 Climbing FlightAware ADS-B
Thu 01:29:25 AM 58.5400 13.4250 145° Southeast 451 519 34,000 857 Climbing FlightAware ADS-B
Thu 01:30:25 AM 58.4360 13.5590 146° Southeast 451 519 34,900 625 Climbing FlightAware ADS-B
Thu 01:31:01 AM 58.3750 13.6390 145° Southeast 453 521 35,000 60 Climbing FlightAware ADS-B
Thu 01:32:05 AM 58.2620 13.7850 146° Southeast 457 526 35,000  Level FlightAware ADS-B
Thu 01:32:46 AM 58.1910 13.8760 146° Southeast 456 525 35,000  Level FlightAware ADS-B
Thu 01:33:18 AM 58.1340 13.9490 146° Southeast 455 524 35,000  Level FlightAware ADS-B
Thu 01:33:50 AM 58.0820 14.0150 146° Southeast 455 524 35,000  Level FlightAware ADS-B
Thu 01:34:22 AM 58.0250 14.0880 146° Southeast 454 522 35,000  Level FlightAware ADS-B
Thu 01:35:00 AM 57.9570 14.1740 146° Southeast 455 524 35,000  Level FlightAware ADS-B
Thu 01:35:30 AM 57.9040 14.2390 147° Southeast 456 525 35,000  Level FlightAware ADS-B
Thu 01:36:23 AM 57.8130 14.3530 146° Southeast 457 526 35,000  Level FlightAware ADS-B
Thu 01:36:59 AM 57.7500 14.4320 146° Southeast 453 521 35,000  Level FlightAware ADS-B
Thu 01:38:13 AM 57.6200 14.5930 146° Southeast 449 517 35,000  Level FlightAware ADS-B
Thu 01:38:43 AM 57.5690 14.6550 147° Southeast 449 517 35,000  Level FlightAware ADS-B
Thu 01:39:18 AM 57.5080 14.7300 147° Southeast 449 517 35,000  Level FlightAware ADS-B
Thu 01:39:59 AM 57.4380 14.8160 147° Southeast 448 516 35,000  Level FlightAware ADS-B
Thu 01:40:37 AM 57.3770 14.8890 147° Southeast 448 516 35,000  Level FlightAware ADS-B
Thu 01:41:14 AM 57.3100 14.9710 147° Southeast 447 514 35,000  Level FlightAware ADS-B
Thu 01:41:50 AM 57.2480 15.0460 147° Southeast 446 513 35,000  Level FlightAware ADS-B
Thu 01:42:14 AM 57.2060 15.0960 147° Southeast 446 513 35,000  Level FlightAware ADS-B
Thu 01:43:22 AM 57.0890 15.2350 147° Southeast 446 513 35,000  Level FlightAware ADS-B
Thu 01:44:12 AM 57.0020 15.3390 147° Southeast 446 513 35,000  Level FlightAware ADS-B
Thu 01:44:52 AM 56.9340 15.4190 147° Southeast 447 514 35,000  Level FlightAware ADS-B
Thu 01:45:32 AM 56.8640 15.5000 148° Southeast 447 514 35,000  Level FlightAware ADS-B
Thu 01:46:03 AM 56.8120 15.5620 147° Southeast 448 516 35,000  Level FlightAware ADS-B
Thu 01:46:40 AM 56.7460 15.6390 147° Southeast 448 516 35,000  Level FlightAware ADS-B
Thu 01:47:12 AM 56.6900 15.7030 148° Southeast 449 517 35,000  Level FlightAware ADS-B
Thu 01:47:44 AM 56.6340 15.7680 147° Southeast 450 518 35,000  Level FlightAware ADS-B
Thu 01:48:28 AM 56.5560 15.8580 148° Southeast 450 518 35,000  Level FlightAware ADS-B
Thu 01:48:51 AM 56.5180 15.9020 147° Southeast 450 518 35,000  Level FlightAware ADS-B
Thu 01:49:28 AM 56.4520 15.9770 148° Southeast 449 517 35,000  Level FlightAware ADS-B
Thu 01:49:54 AM 56.4050 16.0310 148° Southeast 450 518 35,000  Level FlightAware ADS-B
Thu 01:50:31 AM 56.3390 16.1060 148° Southeast 448 516 35,000  Level FlightAware ADS-B
Thu 01:50:59 AM 56.2900 16.1610 148° Southeast 448 516 35,000  Level FlightAware ADS-B
Thu 01:51:51 AM 56.1980 16.2650 148° Southeast 447 514 35,000  Level FlightAware ADS-B
Thu 01:52:23 AM 56.1430 16.3270 148° Southeast 445 512 35,000  Level FlightAware ADS-B
Thu 01:52:55 AM 56.0890 16.3870 148° Southeast 445 512 35,000  Level FlightAware ADS-B
Thu 01:53:33 AM 56.0220 16.4620 148° Southeast 445 512 35,000  Level FlightAware ADS-B
Thu 01:54:13 AM 55.9530 16.5390 148° Southeast 444 511 35,000  Level FlightAware ADS-B
Thu 01:55:25 AM 55.8380 16.7100 140° Southeast 455 524 35,000  Level FlightAware ADS-B
Thu 01:55:53 AM 55.7930 16.7810 138° Southeast 457 526 35,000  Level FlightAware ADS-B
Thu 01:56:37 AM 55.7250 16.8860 139° Southeast 455 524 35,000  Level FlightAware ADS-B
Thu 01:57:53 AM 55.6040 17.0710 139° Southeast 455 524 35,000  Level FlightAware ADS-B
Thu 01:58:26 AM 55.5500 17.1530 139° Southeast 453 521 35,000  Level FlightAware ADS-B
Thu 01:59:46 AM 55.4220 17.3470 139° Southeast 453 521 35,000  Level FlightAware ADS-B
Thu 02:00:26 AM 55.3600 17.4390 140° Southeast 453 521 35,000  Level FlightAware ADS-B
Thu 02:01:22 AM 55.2710 17.5730 139° Southeast 451 519 35,000  Level FlightAware ADS-B
Thu 02:02:06 AM 55.2006 17.6780 140° Southeast 450 518 35,000  Level FlightAware ADS-B (EPSY / SZY)
Thu 02:02:52 AM 55.1334 17.7778 140° Southeast 447 514 35,000  Level FlightAware ADS-B (EPSY / SZY)
Thu 02:03:45 AM 55.0444 17.9082 140° Southeast 447 514 35,000  Level FlightAware ADS-B (EPSY / SZY)
Thu 02:04:24 AM 54.9819 17.9998 140° Southeast 446 513 35,000  Level FlightAware ADS-B (EPSY / SZY)
Thu 02:04:54 AM 54.9350 18.0683 140° Southeast 445 512 35,000  Level FlightAware ADS-B (EPSY / SZY)
Thu 02:05:40 AM 54.8627 18.1731 140° Southeast 442 509 35,000  Level FlightAware ADS-B (EPSY / SZY)
Thu 02:06:21 AM 54.7997 18.2643 140° Southeast 442 509 35,000  Level FlightAware ADS-B (EPSY / SZY)
Thu 02:06:52 AM 54.7510 18.3349 140° Southeast 441 507 35,000  Level FlightAware ADS-B (EPSY / SZY)
Thu 02:07:25 AM 54.6985 18.4102 140° Southeast 443 510 35,000  Level FlightAware ADS-B (EPSY / SZY)
Thu 02:07:55 AM 54.6516 18.4770 140° Southeast 445 512 35,000  Level FlightAware ADS-B (EPSY / SZY)
Thu 02:08:27 AM 54.6167 18.5267 140° Southeast 447 514 35,000  Level FlightAware ADS-B (EPSY / SZY)
Thu 02:08:57 AM 54.5546 18.6155 140° Southeast 450 518 35,000  Level FlightAware ADS-B (EPSY / SZY)
Thu 02:09:27 AM 54.5055 18.6858 140° Southeast 451 519 35,000  Level FlightAware ADS-B (EPSY / SZY)
Thu 02:09:59 AM 54.4508 18.7464 147° Southeast 433 498 35,000  Level FlightAware ADS-B (EPSY / SZY)
Thu 02:10:29 AM 54.3967 18.7915 154° Southeast 433 498 35,000  Level FlightAware ADS-B (EPSY / SZY)
Thu 02:11:01 AM 54.3394 18.8392 154° Southeast 433 498 35,000  Level FlightAware ADS-B (EPSY / SZY)
Thu 02:11:31 AM 54.2855 18.8840 154° Southeast 436 502 35,000  Level FlightAware ADS-B (EPSY / SZY)
Thu 02:12:17 AM 54.2013 18.9542 154° Southeast 437 503 35,000  Level FlightAware ADS-B (EPSY / SZY)
Thu 02:12:47 AM 54.1468 19.0001 154° Southeast 437 503 35,000  Level FlightAware ADS-B (EPSY / SZY)
Thu 02:13:29 AM 54.0755 19.0598 154° Southeast 435 501 35,000  Level FlightAware ADS-B (EPSY / SZY)
Thu 02:13:59 AM 54.0175 19.1086 154° Southeast 434 499 35,000  Level FlightAware ADS-B (EPSY / SZY)
Thu 02:14:41 AM 53.9476 19.1682 153° Southeast 432 497 35,000  Level FlightAware ADS-B (EPSY / SZY)
Thu 02:15:11 AM 53.8897 19.2173 153° Southeast 429 494 35,000  Level FlightAware ADS-B (EPSY / SZY)
Thu 02:15:42 AM 53.8353 19.2632 154° Southeast 428 493 35,000  Level FlightAware ADS-B (EPSY / SZY)
Thu 02:16:15 AM 53.7779 19.3207 149° Southeast 443 510 35,000  Level FlightAware ADS-B (EPSY / SZY)
Thu 02:16:46 AM 53.7312 19.3920 138° Southeast 447 514 35,000  Level FlightAware ADS-B (EPSY / SZY)
Thu 02:17:26 AM 53.6690 19.4834 139° Southeast 449 517 35,000  Level FlightAware ADS-B (EPSY / SZY)
Thu 02:18:06 AM 53.6068 19.5743 139° Southeast 449 517 35,000  Level FlightAware ADS-B (EPSY / SZY)
Thu 02:18:42 AM 53.5500 19.6576 139° Southeast 449 517 35,000  Level FlightAware ADS-B (EPSY / SZY)
Thu 02:19:12 AM 53.5041 19.7247 139° Southeast 449 517 35,000  Level FlightAware ADS-B (EPSY / SZY)
Thu 02:19:42 AM 53.4583 19.7911 139° Southeast 450 518 35,000  Level FlightAware ADS-B (EPSY / SZY)
Thu 02:20:22 AM 53.3925 19.8861 139° Southeast 453 521 35,000  Level FlightAware ADS-B (EPSY / SZY)
Thu 02:20:52 AM 53.3460 19.9528 139° Southeast 453 521 35,000  Level FlightAware ADS-B (EPSY / SZY)
Thu 02:21:22 AM 53.2970 20.0229 139° Southeast 454 522 35,000  Level FlightAware ADS-B (EPSY / SZY)
Thu 02:21:56 AM 53.2427 20.1005 139° Southeast 455 524 35,000  Level FlightAware ADS-B (EPSY / SZY)
Thu 02:22:26 AM 53.1959 20.1676 139° Southeast 455 524 35,000  Level FlightAware ADS-B (EPSY / SZY)
Thu 02:22:58 AM 53.1445 20.2408 139° Southeast 455 524 35,000  Level FlightAware ADS-B (EPSY / SZY)
Thu 02:23:28 AM 53.0958 20.3098 140° Southeast 455 524 35,000  Level FlightAware ADS-B (EPSY / SZY)
Thu 02:24:10 AM 53.0306 20.4020 140° Southeast 453 521 35,000  Level FlightAware ADS-B (EPSY / SZY)
Thu 02:24:40 AM 52.9818 20.4704 140° Southeast 452 520 35,000  Level FlightAware ADS-B (EPSY / SZY)
Thu 02:25:10 AM 52.9332 20.5385 140° Southeast 454 522 35,000  Level FlightAware ADS-B (EPSY / SZY)
Thu 02:25:40 AM 52.8880 20.6017 140° Southeast 455 524 35,000  Level FlightAware ADS-B (EPSY / SZY)
Thu 02:26:10 AM 52.8368 20.6730 140° Southeast 454 522 35,000  Level FlightAware ADS-B (EPSY / SZY)
Thu 02:26:43 AM 52.7850 20.7449 140° Southeast 453 521 35,000  Level FlightAware ADS-B (EPSY / SZY)
Thu 02:27:13 AM 52.7370 20.8115 140° Southeast 451 519 35,000  Level FlightAware ADS-B (EPSY / SZY)
Thu 02:27:44 AM 52.6885 20.8786 140° Southeast 449 517 35,000  Level FlightAware ADS-B (EPSY / SZY)
Thu 02:28:24 AM 52.6245 20.9667 140° Southeast 448 516 35,000  Level FlightAware ADS-B (EPSY / SZY)
Thu 02:28:54 AM 52.5774 21.0314 140° Southeast 448 516 35,000  Level FlightAware ADS-B (EPSY / SZY)
Thu 02:29:31 AM 52.5195 21.1104 140° Southeast 447 514 35,000  Level FlightAware ADS-B (EPSY / SZY)
Thu 02:30:01 AM 52.4707 21.1770 140° Southeast 445 512 35,000  Level FlightAware ADS-B (EPSY / SZY)
Thu 02:30:32 AM 52.4246 21.2399 140° Southeast 445 512 35,000  Level FlightAware ADS-B (EPSY / SZY)
Thu 02:31:03 AM 52.3727 21.3101 140° Southeast 446 513 35,000  Level FlightAware ADS-B (EPSY / SZY)
Thu 02:31:53 AM 52.2929 21.4177 140° Southeast 450 518 35,000  Level FlightAware ADS-B (EPSY / SZY)
Thu 02:32:23 AM 52.2469 21.4796 141° Southeast 450 518 35,000  Level FlightAware ADS-B (EPSY / SZY)
Thu 02:32:53 AM 52.1967 21.5468 141° Southeast 451 519 35,000  Level FlightAware ADS-B (EPSY / SZY)
Thu 02:33:23 AM 52.1488 21.6107 141° Southeast 451 519 35,000  Level FlightAware ADS-B
Thu 02:33:53 AM 52.0999 21.6761 141° Southeast 451 519 35,000  Level FlightAware ADS-B (EPSY / SZY)
Thu 02:34:23 AM 52.0512 21.7410 141° Southeast 451 519 35,000  Level FlightAware ADS-B (EPSY / SZY)
Thu 02:34:53 AM 52.0037 21.8039 141° Southeast 451 519 35,000  Level FlightAware ADS-B (EPSY / SZY)
Thu 02:35:23 AM 51.9555 21.8677 141° Southeast 449 517 35,000  Level FlightAware ADS-B (EPSY / SZY)
Thu 02:36:05 AM 51.8884 21.9558 141° Southeast 449 517 35,000  Level FlightAware ADS-B (EPSY / SZY)
Thu 02:36:35 AM 51.8392 22.0203 141° Southeast 447 514 35,000  Level FlightAware ADS-B (EPSY / SZY)
Thu 02:37:16 AM 51.7735 22.1062 141° Southeast 446 513 35,000  Level FlightAware ADS-B (EPSY / SZY)
Thu 02:37:47 AM 51.7272 22.1667 141° Southeast 444 511 35,000  Level FlightAware ADS-B (EPSY / SZY)
Thu 02:38:18 AM 51.6811 22.2268 141° Southeast 440 506 35,000  Level FlightAware ADS-B (EPSY / SZY)
Thu 02:38:53 AM 51.6223 22.3027 141° Southeast 438 504 35,000  Level FlightAware ADS-B (EPSY / SZY)
Thu 02:40:12 AM 51.4954 22.4665 141° Southeast 443 510 35,000  Level FlightAware ADS-B (EPSY / SZY)
Thu 02:40:59 AM 51.4212 22.5613 141° Southeast 444 511 35,000  Level FlightAware ADS-B (EPSY / SZY)
Thu 02:41:36 AM 51.3598 22.6398 141° Southeast 450 518 35,000  Level FlightAware ADS-B (EPSY / SZY)
Thu 02:42:45 AM 51.2500 22.7800 141° Southeast 446 513 35,000  Level FlightAware ADS-B
Thu 02:43:37 AM 51.1650 22.8860 142° Southeast 444 511 35,000  Level FlightAware ADS-B
Thu 02:44:33 AM 51.0780 22.9970 141° Southeast 442 509 35,000  Level FlightAware ADS-B
Thu 02:45:11 AM 51.0348 23.0500 142° Southeast 445 512 35,000  Level FlightAware ADS-B (EPSY / SZY)
Thu 02:46:08 AM 50.9214 23.1917 142° Southeast 449 517 35,000  Level FlightAware ADS-B (EPSY / SZY)
Thu 02:47:01 AM 50.8340 23.3010 142° Southeast 448 516 35,000  Level FlightAware ADS-B
Thu 02:47:39 AM 50.7740 23.3750 142° Southeast 450 518 35,000  Level FlightAware ADS-B
Thu 02:48:15 AM 50.7140 23.4480 142° Southeast 451 519 35,000  Level FlightAware ADS-B
Thu 02:48:45 AM 50.6640 23.5100 142° Southeast 451 519 35,000  Level FlightAware ADS-B
Thu 02:49:28 AM 50.5950 23.5930 143° Southeast 451 519 35,000  Level FlightAware ADS-B
Thu 02:50:28 AM 50.4970 23.7130 142° Southeast 451 519 35,000  Level FlightAware ADS-B
Thu 02:51:09 AM 50.4290 23.7960 142° Southeast 450 518 35,000  Level FlightAware ADS-B
Thu 02:51:40 AM 50.3790 23.8660 138° Southeast 456 525 35,000  Level FlightAware ADS-B
Thu 02:52:22 AM 50.3170 23.9650 134° Southeast 456 525 35,000  Level FlightAware ADS-B
Thu 02:53:02 AM 50.2550 24.0520 138° Southeast 452 520 35,000  Level FlightAware ADS-B
Thu 02:53:34 AM 50.1980 24.1060 149° Southeast 447 514 35,000  Level FlightAware ADS-B
Thu 02:54:37 AM 50.0850 24.2050 151° Southeast 451 519 35,000  Level FlightAware ADS-B
Thu 02:55:13 AM 50.0180 24.2620 151° Southeast 453 521 35,000  Level FlightAware ADS-B
Thu 02:55:49 AM 49.9520 24.3190 151° Southeast 454 522 35,000  Level FlightAware ADS-B
Thu 02:56:26 AM 49.8850 24.3760 151° Southeast 453 521 35,000  Level FlightAware ADS-B
Thu 02:56:59 AM 49.8240 24.4290 151° Southeast 443 510 35,000  Level FlightAware ADS-B
Thu 02:57:44 AM 49.7460 24.4950 151° Southeast 443 510 35,000  Level FlightAware ADS-B
Thu 02:58:20 AM 49.6800 24.5510 151° Southeast 444 511 35,000  Level FlightAware ADS-B
Thu 02:58:57 AM 49.6130 24.6080 151° Southeast 446 513 35,000  Level FlightAware ADS-B
Thu 02:59:29 AM 49.5560 24.6560 151° Southeast 447 514 35,000  Level FlightAware ADS-B
Thu 03:00:01 AM 49.4960 24.7070 151° Southeast 449 517 35,000  Level FlightAware ADS-B
Thu 03:01:06 AM 49.3780 24.8050 152° Southeast 451 519 35,000  Level FlightAware ADS-B
Thu 03:01:51 AM 49.2960 24.8740 151° Southeast 453 521 35,000  Level FlightAware ADS-B
Thu 03:02:27 AM 49.2310 24.9270 152° Southeast 454 522 35,000  Level FlightAware ADS-B
Thu 03:03:35 AM 49.1080 25.0300 151° Southeast 453 521 35,000  Level FlightAware ADS-B
Thu 03:04:03 AM 49.0550 25.0730 152° Southeast 453 521 35,000  Level FlightAware ADS-B
Thu 03:04:39 AM 48.9870 25.1290 152° Southeast 453 521 35,000  Level FlightAware ADS-B
Thu 03:05:09 AM 48.9320 25.1730 152° Southeast 454 522 35,000  Level FlightAware ADS-B
Thu 03:05:50 AM 48.8550 25.2370 151° Southeast 455 524 35,000  Level FlightAware ADS-B
Thu 03:06:24 AM 48.7920 25.2880 152° Southeast 456 525 35,000  Level FlightAware ADS-B
Thu 03:06:55 AM 48.7340 25.3350 152° Southeast 457 526 35,000  Level FlightAware ADS-B
Thu 03:07:36 AM 48.6590 25.3960 152° Southeast 459 528 35,000  Level FlightAware ADS-B
Thu 03:08:10 AM 48.5940 25.4490 152° Southeast 459 528 35,000  Level FlightAware ADS-B
Thu 03:08:52 AM 48.5170 25.5100 152° Southeast 458 527 35,000  Level FlightAware ADS-B
Thu 03:09:27 AM 48.4510 25.5630 152° Southeast 458 527 35,000  Level FlightAware ADS-B
Thu 03:10:14 AM 48.3620 25.6340 152° Southeast 458 527 35,000  Level FlightAware ADS-B
Thu 03:10:59 AM 48.2770 25.7010 152° Southeast 457 526 35,000  Level FlightAware ADS-B
Thu 03:12:07 AM 48.1550 25.7990 152° Southeast 459 528 35,000  Level FlightAware ADS-B
Thu 03:12:39 AM 48.0910 25.8480 153° Southeast 459 528 35,000  Level FlightAware ADS-B
Thu 03:13:19 AM 48.0190 25.9050 152° Southeast 460 529 35,000  Level FlightAware ADS-B
Thu 03:13:59 AM 47.9410 25.9650 153° Southeast 459 528 35,000  Level FlightAware ADS-B
Thu 03:14:29 AM 47.8820 26.0020 157° South 458 527 35,000  Level FlightAware ADS-B
Thu 03:15:40 AM 47.7490 26.1000 154° Southeast 458 527 35,000  Level FlightAware ADS-B
Thu 03:16:05 AM 47.7040 26.1330 154° Southeast 458 527 35,000  Level FlightAware ADS-B
Thu 03:16:40 AM 47.6360 26.1820 154° Southeast 459 528 35,000  Level FlightAware ADS-B
Thu 03:17:10 AM 47.5770 26.2250 154° Southeast 458 527 35,000  Level FlightAware ADS-B
Thu 03:17:50 AM 47.5040 26.2770 154° Southeast 458 527 35,000  Level FlightAware ADS-B
Thu 03:18:25 AM 47.4340 26.3270 154° Southeast 459 528 35,000  Level FlightAware ADS-B
Thu 03:19:05 AM 47.3580 26.3810 154° Southeast 458 527 35,000  Level FlightAware ADS-B
Thu 03:19:40 AM 47.2970 26.4250 154° Southeast 458 527 35,000  Level FlightAware ADS-B
Thu 03:20:15 AM 47.2280 26.4740 154° Southeast 456 525 35,000  Level FlightAware ADS-B
Thu 03:20:54 AM 47.1500 26.5290 154° Southeast 454 522 35,000  Level FlightAware ADS-B
Thu 03:21:15 AM 47.1130 26.5560 154° Southeast 454 522 35,000  Level FlightAware ADS-B
Thu 03:22:20 AM 46.9870 26.6440 155° Southeast 452 520 35,000  Level FlightAware ADS-B
Thu 03:23:32 AM 46.8510 26.7390 154° Southeast 450 518 35,000  Level FlightAware ADS-B
Thu 03:24:13 AM 46.7800 26.7890 154° Southeast 449 517 35,000  Level FlightAware ADS-B
Thu 03:24:48 AM 46.7120 26.8360 155° Southeast 449 517 35,000  Level FlightAware ADS-B
Thu 03:25:24 AM 46.6410 26.8860 154° Southeast 449 517 35,000  Level FlightAware ADS-B
Thu 03:26:14 AM 46.5490 26.9490 155° Southeast 449 517 35,000  Level FlightAware ADS-B
Thu 03:26:56 AM 46.4690 27.0040 155° Southeast 449 517 35,000  Level FlightAware ADS-B
Thu 03:27:37 AM 46.3930 27.0560 155° Southeast 450 518 35,000  Level FlightAware ADS-B
Thu 03:28:16 AM 46.3190 27.1070 155° Southeast 450 518 35,000  Level FlightAware ADS-B
Thu 03:28:53 AM 46.2510 27.1530 155° Southeast 450 518 35,000  Level FlightAware ADS-B
Thu 03:29:36 AM 46.1690 27.2090 155° Southeast 450 518 35,000  Level FlightAware ADS-B
Thu 03:30:24 AM 46.0780 27.2710 155° Southeast 450 518 35,000  Level FlightAware ADS-B
Thu 03:30:54 AM 46.0210 27.3090 155° Southeast 450 518 35,000  Level FlightAware ADS-B
Thu 03:31:30 AM 45.9540 27.3540 155° Southeast 451 519 35,000  Level FlightAware ADS-B
Thu 03:32:10 AM 45.8790 27.4060 154° Southeast 452 520 35,000  Level FlightAware ADS-B
Thu 03:33:26 AM 45.7360 27.5010 155° Southeast 452 520 35,000  Level FlightAware ADS-B
Thu 03:34:03 AM 45.6650 27.5480 155° Southeast 452 520 35,000  Level FlightAware ADS-B
Thu 03:34:41 AM 45.5930 27.5960 155° Southeast 452 520 35,000  Level FlightAware ADS-B
Thu 03:35:18 AM 45.5230 27.6430 155° Southeast 453 521 35,000  Level FlightAware ADS-B
Thu 03:35:52 AM 45.4590 27.6850 155° Southeast 453 521 35,000  Level FlightAware ADS-B
Thu 03:36:25 AM 45.3940 27.7280 155° Southeast 453 521 35,000  Level FlightAware ADS-B
Thu 03:36:54 AM 45.3420 27.7620 155° Southeast 453 521 35,000  Level FlightAware ADS-B
Thu 03:37:35 AM 45.2990 27.7900 155° Southeast 452 520 35,000  Level FlightAware ADS-B
Thu 03:38:15 AM 45.1900 27.8610 155° Southeast 453 521 35,000  Level FlightAware ADS-B
Thu 03:39:27 AM 45.0470 27.9540 155° Southeast 454 522 35,000  Level FlightAware ADS-B
Thu 03:40:07 AM 44.9720 28.0030 155° Southeast 455 524 35,000  Level FlightAware ADS-B
Thu 03:40:39 AM 44.9120 28.0420 155° Southeast 455 524 35,000  Level FlightAware ADS-B
Thu 03:41:24 AM 44.8260 28.0980 155° Southeast 454 522 35,000  Level FlightAware ADS-B
Thu 03:42:10 AM 44.7450 28.1490 156° South 455 524 35,000  Level FlightAware ADS-B
Thu 03:42:50 AM 44.6660 28.2010 155° Southeast 455 524 35,000  Level FlightAware ADS-B
Thu 03:43:21 AM 44.6090 28.2370 156° South 455 524 35,000  Level FlightAware ADS-B
Thu 03:44:03 AM 44.5270 28.2900 155° Southeast 447 514 35,000  Level FlightAware ADS-B
Thu 03:44:33 AM 44.4690 28.3260 156° South 447 514 35,000  Level FlightAware ADS-B
Thu 03:45:03 AM 44.4120 28.3630 155° Southeast 447 514 35,000  Level FlightAware ADS-B
Thu 03:45:37 AM 44.3440 28.4050 156° South 447 514 35,000  Level FlightAware ADS-B
Thu 03:46:13 AM 44.2780 28.4470 156° South 447 514 35,000  Level FlightAware ADS-B
Thu 03:46:47 AM 44.2090 28.4900 156° South 455 524 35,000  Level FlightAware ADS-B
Thu 03:47:23 AM 44.1400 28.5140 166° South 458 527 35,000  Level FlightAware ADS-B
Thu 03:48:11 AM 44.0580 28.5310 172° South 457 526 35,000  Level FlightAware ADS-B
Thu 03:48:48 AM 43.9620 28.5370 177° South 449 517 35,000  Level FlightAware ADS-B
Thu 03:49:33 AM 43.8700 28.5490 175° South 455 524 35,000  Level FlightAware ADS-B
Thu 03:50:03 AM 43.8070 28.5560 175° South 454 522 35,000  Level FlightAware ADS-B
Thu 03:50:28 AM 43.7490 28.5640 174° South 454 522 35,000  Level FlightAware ADS-B
Thu 03:50:55 AM 43.6970 28.5700 175° South 459 528 35,000  Level FlightAware ADS-B
Thu 03:51:54 AM 43.5740 28.5850 175° South 455 524 35,000  Level FlightAware ADS-B
Thu 03:52:27 AM 43.4980 28.5950 175° South 455 524 35,000  Level FlightAware ADS-B
Thu 03:53:10 AM 43.4080 28.6060 175° South 457 526 35,000  Level FlightAware ADS-B
Thu 03:53:34 AM 43.3620 28.6110 175° South 457 526 35,000  Level FlightAware ADS-B
Thu 03:54:23 AM 43.2580 28.6240 175° South 450 518 35,000  Level FlightAware ADS-B
Thu 03:55:19 AM 43.1330 28.6400 175° South 461 531 35,000  Level FlightAware ADS-B
Thu 03:55:54 AM 43.0630 28.6490 175° South 462 532 35,000  Level FlightAware ADS-B
Thu 03:56:54 AM 42.9360 28.6640 175° South 463 533 35,000  Level FlightAware ADS-B
Thu 03:57:29 AM 42.8570 28.6730 175° South 463 533 35,000  Level FlightAware ADS-B
Thu 03:57:58 AM 42.8000 28.6800 175° South 462 532 35,000  Level FlightAware ADS-B
Thu 03:58:30 AM 42.7280 28.6890 175° South 462 532 35,000  Level FlightAware ADS-B
Thu 03:58:55 AM 42.6780 28.6950 175° South 462 532 35,000  Level FlightAware ADS-B
Thu 03:59:47 AM 42.5670 28.7080 175° South 453 521 35,000  Level FlightAware ADS-B
Thu 04:00:25 AM 42.4830 28.7180 175° South 452 520 35,000  Level FlightAware ADS-B
Thu 04:01:01 AM 42.4080 28.7270 175° South 451 519 35,000  Level FlightAware ADS-B
Thu 04:01:30 AM 42.3470 28.7340 175° South 451 519 35,000  Level FlightAware ADS-B
Thu 04:02:06 AM 42.2720 28.7430 175° South 451 519 35,000  Level FlightAware ADS-B
Thu 04:02:45 AM 42.1890 28.7530 175° South 451 519 35,000  Level FlightAware ADS-B
Thu 04:03:15 AM 42.1280 28.7650 172° South 449 517 35,000  Level FlightAware ADS-B
Thu 04:04:26 AM 41.9820 28.8150 166° South 447 514 35,000  Level FlightAware ADS-B
Thu 04:04:55 AM 41.9210 28.8350 166° South 448 516 35,000  Level FlightAware ADS-B
Thu 04:05:21 AM 41.8740 28.8500 167° South 448 516 35,000  Level FlightAware ADS-B
Thu 04:06:01 AM 41.7880 28.8790 166° South 448 516 35,000  Level FlightAware ADS-B
Thu 04:06:42 AM 41.7050 28.9070 166° South 449 517 35,000  Level FlightAware ADS-B
Thu 04:07:21 AM 41.6200 28.9340 167° South 449 517 35,000  Level FlightAware ADS-B
Thu 04:07:52 AM 41.5590 28.9550 166° South 450 518 35,000  Level FlightAware ADS-B
Thu 04:08:32 AM 41.4770 28.9820 166° South 449 517 35,000  Level FlightAware ADS-B
Thu 04:09:08 AM 41.4020 29.0060 167° South 450 518 35,000  Level FlightAware ADS-B
Thu 04:09:47 AM 41.3210 29.0330 166° South 450 518 35,000  Level FlightAware ADS-B
Thu 04:10:17 AM 41.2590 29.0530 166° South 450 518 35,000  Level FlightAware ADS-B
Thu 04:10:58 AM 41.1800 29.0780 167° South 450 518 35,000  Level FlightAware ADS-B
Thu 04:11:33 AM 41.1170 29.0990 166° South 450 518 35,000  Level FlightAware ADS-B
Thu 04:12:03 AM 41.0410 29.1230 167° South 450 518 35,000  Level FlightAware ADS-B
Thu 04:12:39 AM 40.9690 29.1470 166° South 451 519 35,000  Level FlightAware ADS-B
Thu 04:13:14 AM 40.8960 29.1700 167° South 460 529 35,000  Level FlightAware ADS-B
Thu 04:13:48 AM 40.8230 29.1940 166° South 461 531 35,000  Level FlightAware ADS-B
Thu 04:14:28 AM 40.7390 29.2210 166° South 462 532 35,000  Level FlightAware ADS-B
Thu 04:14:58 AM 40.6780 29.2400 167° South 463 533 35,000  Level FlightAware ADS-B
Thu 04:15:39 AM 40.5940 29.2670 166° South 463 533 35,000  Level FlightAware ADS-B
Thu 04:16:19 AM 40.5130 29.2930 166° South 463 533 35,000  Level FlightAware ADS-B
Thu 04:16:53 AM 40.4400 29.3160 167° South 462 532 35,000  Level FlightAware ADS-B
Thu 04:17:33 AM 40.3570 29.3420 167° South 462 532 35,000  Level FlightAware ADS-B
Thu 04:18:38 AM 40.2220 29.3850 166° South 460 529 35,000  Level FlightAware ADS-B
Thu 04:19:23 AM 40.1300 29.4140 166° South 460 529 35,000  Level FlightAware ADS-B
Thu 04:20:04 AM 40.0520 29.4380 167° South 461 531 35,000  Level FlightAware ADS-B
Thu 04:20:48 AM 39.9580 29.4680 166° South 461 531 35,000  Level FlightAware ADS-B
Thu 04:21:30 AM 39.8820 29.4920 166° South 461 531 35,000  Level FlightAware ADS-B
Thu 04:21:53 AM 39.8220 29.5110 166° South 462 532 35,000  Level FlightAware ADS-B
Thu 04:22:34 AM 39.7340 29.5380 167° South 463 533 35,000  Level FlightAware ADS-B
Thu 04:23:13 AM 39.6590 29.5610 167° South 463 533 35,000  Level FlightAware ADS-B
Thu 04:23:39 AM 39.6070 29.5770 167° South 462 532 35,000  Level FlightAware ADS-B
Thu 04:24:40 AM 39.4760 29.6180 166° South 464 534 35,000  Level FlightAware ADS-B
Thu 04:25:14 AM 39.4070 29.6480 161° South 464 534 35,000  Level FlightAware ADS-B
Thu 04:25:53 AM 39.3300 29.6850 160° South 462 532 35,000  Level FlightAware ADS-B
Thu 04:26:51 AM 39.2050 29.7460 159° South 465 535 35,000  Level FlightAware ADS-B
Thu 04:27:33 AM 39.1220 29.7860 159° South 467 537 35,000  Level FlightAware ADS-B
Thu 04:28:04 AM 39.0660 29.8130 159° South 467 537 35,000  Level FlightAware ADS-B
Thu 04:28:35 AM 38.9950 29.8460 160° South 466 536 35,000  Level FlightAware ADS-B
Thu 04:29:17 AM 38.9090 29.8880 159° South 464 534 35,000  Level FlightAware ADS-B
Thu 04:29:51 AM 38.8400 29.9200 160° South 465 535 35,000  Level FlightAware ADS-B
Thu 04:30:21 AM 38.7810 29.9480 160° South 465 535 35,000  Level FlightAware ADS-B
Thu 04:31:09 AM 38.6830 29.9940 160° South 464 534 35,000  Level FlightAware ADS-B
Thu 04:32:13 AM 38.5590 30.0530 160° South 464 534 35,000 -341 Level FlightAware ADS-B
Thu 04:32:37 AM 38.5090 30.0770 159° South 464 534 34,500 -1,475 Descending FlightAware ADS-B
Thu 04:33:14 AM 38.4380 30.1100 160° South 458 527 33,500 -2,211 Descending FlightAware ADS-B
Thu 04:33:53 AM 38.3580 30.1470 160° South 455 524 31,700 -2,955 Descending FlightAware ADS-B
Thu 04:34:21 AM 38.3020 30.1740 159° South 457 526 30,200 -2,696 Descending FlightAware ADS-B
Thu 04:35:02 AM 38.2220 30.2110 160° South 449 517 28,600 -2,132 Descending FlightAware ADS-B
Thu 04:35:37 AM 38.1570 30.2400 161° South 437 503 27,500 -2,175 Descending FlightAware ADS-B
Thu 04:36:22 AM 38.0690 30.2810 160° South 428 493 25,700 -2,188 Descending FlightAware ADS-B
Thu 04:37:02 AM 37.9990 30.3080 163° South 420 483 24,400 -2,593 Descending FlightAware ADS-B
Thu 04:37:43 AM 37.9200 30.3350 165° South 429 494 22,200 -2,873 Descending FlightAware ADS-B
Thu 04:38:13 AM 37.8650 30.3530 166° South 425 489 21,000 -2,625 Descending FlightAware ADS-B
Thu 04:38:47 AM 37.7940 30.3780 164° South 422 486 19,400 -2,435 Descending FlightAware ADS-B
Thu 04:39:22 AM 37.7300 30.4000 165° South 414 476 18,200 -2,031 Descending FlightAware ADS-B
Thu 04:39:52 AM 37.6820 30.4160 165° South 406 467 17,200 -2,862 Descending FlightAware ADS-B
Thu 04:40:27 AM 37.6140 30.4390 165° South 416 479 15,100 -3,231 Descending FlightAware ADS-B
Thu 04:40:57 AM 37.5560 30.4590 165° South 414 476 13,700 -2,250 Descending FlightAware ADS-B
Thu 04:41:47 AM 37.4710 30.4880 165° South 412 474 12,100 -2,080 Descending FlightAware ADS-B
Thu 04:42:12 AM 37.4250 30.5030 165° South 388 447 11,100 -1,662 Descending FlightAware ADS-B
Thu 04:42:52 AM 37.3580 30.5260 165° South 361 415 10,300 -1,120 Descending FlightAware ADS-B
Thu 04:43:27 AM 37.3010 30.5450 165° South 339 390 9,700 -767 Descending FlightAware ADS-B
Thu 04:44:18 AM 37.2290 30.5690 165° South 303 349 9,200 -884 Descending FlightAware ADS-B
Thu 04:45:02 AM 37.1710 30.5890 165° South 290 334 8,300 -1,291 Descending FlightAware ADS-B
Thu 04:45:37 AM 37.1280 30.6030 165° South 288 331 7,500 -1,280 Descending FlightAware ADS-B
Thu 04:46:17 AM 37.0760 30.6210 165° South 277 319 6,700 -1,275 Descending FlightAware ADS-B
Thu 04:46:57 AM 37.0280 30.6370 165° South 276 318 5,800 -1,350 Descending FlightAware ADS-B
Thu 04:47:37 AM 36.9770 30.6540 165° South 271 312 4,900 -1,000 Descending FlightAware ADS-B
Thu 04:47:57 AM 36.9570 30.6610 164° South 260 299 4,800 -960 Descending FlightAware ADS-B
Thu 04:48:27 AM 36.9190 30.6690 170° South 256 295 4,100 -1,259 Descending FlightAware ADS-B
Thu 04:49:18 AM 36.8610 30.6620 186° South 255 293 3,100 -1,000 Descending FlightAware ADS-B
Thu 04:49:57 AM 36.8160 30.6560 186° South 248 285 2,600 -857 Descending FlightAware ADS-B
Thu 04:50:28 AM 36.7820 30.6590 176° South 237 273 2,100 -514 Descending FlightAware ADS-B
Thu 04:51:07 AM 36.7490 30.6800 153° Southeast 237 273 2,000 -312 Descending FlightAware ADS-B
Thu 04:53:02 AM 36.8220 30.7820 48° Northeast 159 183 1,300 -480 Descending FlightAware ADS-B
Thu 04:53:37 AM 36.8460 30.7850 North 152 175 800 -750 Descending FlightAware ADS-B
Thu 04:54:22 AM 36.8740 30.7890 North 149 171 300 -483 Descending FlightAware ADS-B
Thu 04:55:04 AM 36.9000 30.7930 North 146 168 100 -286 Descending FlightAware ADS-B
Thu 04:58:00 AM 36.9015 30.7917 326° Northwest  Level Estimated
Thu 04:59:00 AM 36.9015 30.7917 58° Northeast  Level Estimated
Thu 05:00:00 AM 36.9015 30.7917 58° Northeast  Level Estimated
Thu 05:01:00 AM 36.9015 30.7917 58° Northeast  Level Estimated
Thu 05:02:00 AM 36.9015 30.7917 58° Northeast  Level Estimated
Thu 05:03:00 AM 36.9015 30.7917 58° Northeast  Level Estimated
Thu 05:04:00 AM 36.9015 30.7917 58° Northeast  Level Estimated
Thu 05:05:00 AM 36.9015 30.7917 58° Northeast  Level Estimated
Thu 05:06:00 AM 36.9015 30.7917 58° Northeast  Level Estimated
Thu 05:07:00 AM 36.9015 30.7917 58° Northeast  Level Estimated
Thu 05:08:00 AM 36.9015 30.7917 58° Northeast  Level Estimated
Thu 05:09:00 AM 36.9015 30.7917 58° Northeast  Level Estimated
Thu 05:10:00 AM 36.9015 30.7917 58° Northeast  Level Estimated
Thu 05:11:00 AM 36.9015 30.7917 58° Northeast  Level Estimated
Thu 05:12:00 AM 36.9015 30.7917 58° Northeast  Level Estimated
Thu 05:13:00 AM 36.9015 30.7917 58° Northeast  Level Estimated
Thu 05:14:00 AM 36.9015 30.7917 58° Northeast  Level Estimated
Thu 05:15:00 AM 36.9015 30.7917 58° Northeast  Level Estimated
Thu 05:16:00 AM 36.9015 30.7917 58° Northeast  Level Estimated
Thu 05:17:00 AM 36.9015 30.7917 58° Northeast  Level Estimated

Login

Don't have an account? Register now (free) for customized features, flight alerts, and more!